sensor_id;sensor_type;location;lat;lon;timestamp;P1;durP1;ratioP1;P2;durP2;ratioP2
4839;SDS011;2434;48.486;7.964;2023-04-10T00:00:36;7.97;;;6.33;;
4839;SDS011;2434;48.486;7.964;2023-04-10T00:03:04;8.00;;;6.23;;
4839;SDS011;2434;48.486;7.964;2023-04-10T00:05:33;6.27;;;5.07;;
4839;SDS011;2434;48.486;7.964;2023-04-10T00:08:01;8.70;;;6.47;;
4839;SDS011;2434;48.486;7.964;2023-04-10T00:10:29;11.73;;;7.50;;
4839;SDS011;2434;48.486;7.964;2023-04-10T00:12:58;7.83;;;6.20;;
4839;SDS011;2434;48.486;7.964;2023-04-10T00:15:30;8.47;;;6.30;;
4839;SDS011;2434;48.486;7.964;2023-04-10T00:17:58;6.07;;;5.43;;
4839;SDS011;2434;48.486;7.964;2023-04-10T00:20:26;9.40;;;6.27;;
4839;SDS011;2434;48.486;7.964;2023-04-10T00:22:54;6.97;;;5.70;;
4839;SDS011;2434;48.486;7.964;2023-04-10T00:25:22;9.30;;;7.30;;
4839;SDS011;2434;48.486;7.964;2023-04-10T00:27:52;6.83;;;5.60;;
4839;SDS011;2434;48.486;7.964;2023-04-10T00:30:20;9.43;;;6.93;;
4839;SDS011;2434;48.486;7.964;2023-04-10T00:32:50;10.10;;;6.30;;
4839;SDS011;2434;48.486;7.964;2023-04-10T00:35:18;7.80;;;6.20;;
4839;SDS011;2434;48.486;7.964;2023-04-10T00:37:46;8.90;;;6.40;;
4839;SDS011;2434;48.486;7.964;2023-04-10T00:40:15;7.43;;;6.33;;
4839;SDS011;2434;48.486;7.964;2023-04-10T00:42:43;9.90;;;6.60;;
4839;SDS011;2434;48.486;7.964;2023-04-10T00:45:11;6.97;;;5.70;;
4839;SDS011;2434;48.486;7.964;2023-04-10T00:47:40;8.13;;;5.87;;
4839;SDS011;2434;48.486;7.964;2023-04-10T00:50:10;6.90;;;5.90;;
4839;SDS011;2434;48.486;7.964;2023-04-10T00:52:38;13.20;;;6.67;;
4839;SDS011;2434;48.486;7.964;2023-04-10T00:55:07;9.30;;;7.17;;
4839;SDS011;2434;48.486;7.964;2023-04-10T00:57:36;7.50;;;6.00;;
4839;SDS011;2434;48.486;7.964;2023-04-10T01:00:05;6.93;;;6.00;;
4839;SDS011;2434;48.486;7.964;2023-04-10T01:02:34;9.40;;;6.50;;
4839;SDS011;2434;48.486;7.964;2023-04-10T01:05:02;7.60;;;6.20;;
4839;SDS011;2434;48.486;7.964;2023-04-10T01:07:36;8.67;;;6.57;;
4839;SDS011;2434;48.486;7.964;2023-04-10T01:10:14;6.93;;;6.20;;
4839;SDS011;2434;48.486;7.964;2023-04-10T01:12:54;8.47;;;6.70;;
4839;SDS011;2434;48.486;7.964;2023-04-10T01:15:34;8.20;;;6.27;;
4839;SDS011;2434;48.486;7.964;2023-04-10T01:18:12;9.63;;;6.27;;
4839;SDS011;2434;48.486;7.964;2023-04-10T01:20:46;6.60;;;5.40;;
4839;SDS011;2434;48.486;7.964;2023-04-10T01:26:24;9.03;;;6.90;;
4839;SDS011;2434;48.486;7.964;2023-04-10T01:29:06;8.20;;;6.20;;
4839;SDS011;2434;48.486;7.964;2023-04-10T01:31:36;7.97;;;5.97;;
4839;SDS011;2434;48.486;7.964;2023-04-10T01:34:09;8.20;;;6.20;;
4839;SDS011;2434;48.486;7.964;2023-04-10T01:36:44;9.67;;;7.07;;
4839;SDS011;2434;48.486;7.964;2023-04-10T01:39:17;12.67;;;7.00;;
4839;SDS011;2434;48.486;7.964;2023-04-10T01:41:47;8.63;;;6.13;;
4839;SDS011;2434;48.486;7.964;2023-04-10T01:44:24;8.77;;;6.67;;
4839;SDS011;2434;48.486;7.964;2023-04-10T01:46:55;9.87;;;7.20;;
4839;SDS011;2434;48.486;7.964;2023-04-10T01:49:25;10.70;;;8.00;;
4839;SDS011;2434;48.486;7.964;2023-04-10T01:52:01;10.50;;;8.20;;
4839;SDS011;2434;48.486;7.964;2023-04-10T01:54:30;9.47;;;7.20;;
4839;SDS011;2434;48.486;7.964;2023-04-10T01:57:00;12.20;;;7.77;;
4839;SDS011;2434;48.486;7.964;2023-04-10T01:59:40;10.30;;;7.10;;
4839;SDS011;2434;48.486;7.964;2023-04-10T02:02:08;9.73;;;6.90;;
4839;SDS011;2434;48.486;7.964;2023-04-10T02:04:38;10.17;;;7.23;;
4839;SDS011;2434;48.486;7.964;2023-04-10T02:07:08;7.83;;;6.40;;
4839;SDS011;2434;48.486;7.964;2023-04-10T02:09:44;7.70;;;5.97;;
4839;SDS011;2434;48.486;7.964;2023-04-10T02:12:17;8.80;;;6.30;;
4839;SDS011;2434;48.486;7.964;2023-04-10T02:14:51;5.90;;;5.10;;
4839;SDS011;2434;48.486;7.964;2023-04-10T02:17:22;8.07;;;6.07;;
4839;SDS011;2434;48.486;7.964;2023-04-10T02:19:54;6.27;;;5.67;;
4839;SDS011;2434;48.486;7.964;2023-04-10T02:22:24;6.73;;;5.77;;
4839;SDS011;2434;48.486;7.964;2023-04-10T02:24:53;8.93;;;6.47;;
4839;SDS011;2434;48.486;7.964;2023-04-10T02:27:25;8.00;;;6.07;;
4839;SDS011;2434;48.486;7.964;2023-04-10T02:29:58;6.50;;;5.43;;
4839;SDS011;2434;48.486;7.964;2023-04-10T02:32:30;7.53;;;5.80;;
4839;SDS011;2434;48.486;7.964;2023-04-10T02:34:59;7.13;;;5.77;;
4839;SDS011;2434;48.486;7.964;2023-04-10T02:37:28;7.13;;;5.70;;
4839;SDS011;2434;48.486;7.964;2023-04-10T02:39:59;9.40;;;6.10;;
4839;SDS011;2434;48.486;7.964;2023-04-10T02:42:36;7.53;;;6.20;;
4839;SDS011;2434;48.486;7.964;2023-04-10T02:45:07;6.77;;;5.77;;
4839;SDS011;2434;48.486;7.964;2023-04-10T02:47:39;7.07;;;5.60;;
4839;SDS011;2434;48.486;7.964;2023-04-10T02:50:08;17.20;;;6.30;;
4839;SDS011;2434;48.486;7.964;2023-04-10T02:52:40;7.00;;;5.80;;
4839;SDS011;2434;48.486;7.964;2023-04-10T02:55:09;6.87;;;6.17;;
4839;SDS011;2434;48.486;7.964;2023-04-10T02:57:39;8.90;;;5.53;;
4839;SDS011;2434;48.486;7.964;2023-04-10T03:00:10;6.60;;;5.60;;
4839;SDS011;2434;48.486;7.964;2023-04-10T03:03:03;6.80;;;5.77;;
4839;SDS011;2434;48.486;7.964;2023-04-10T03:05:40;6.50;;;5.53;;
4839;SDS011;2434;48.486;7.964;2023-04-10T03:08:08;11.50;;;7.20;;
4839;SDS011;2434;48.486;7.964;2023-04-10T03:10:36;7.03;;;5.73;;
4839;SDS011;2434;48.486;7.964;2023-04-10T03:13:04;10.70;;;7.10;;
4839;SDS011;2434;48.486;7.964;2023-04-10T03:15:34;9.97;;;7.20;;
4839;SDS011;2434;48.486;7.964;2023-04-10T03:18:03;8.73;;;6.60;;
4839;SDS011;2434;48.486;7.964;2023-04-10T03:20:32;7.40;;;6.17;;
4839;SDS011;2434;48.486;7.964;2023-04-10T03:23:01;7.20;;;5.43;;
4839;SDS011;2434;48.486;7.964;2023-04-10T03:25:32;7.07;;;5.70;;
4839;SDS011;2434;48.486;7.964;2023-04-10T03:28:02;7.63;;;6.33;;
4839;SDS011;2434;48.486;7.964;2023-04-10T03:30:30;7.87;;;6.03;;
4839;SDS011;2434;48.486;7.964;2023-04-10T03:33:02;9.83;;;6.80;;
4839;SDS011;2434;48.486;7.964;2023-04-10T03:35:30;6.83;;;5.80;;
4839;SDS011;2434;48.486;7.964;2023-04-10T03:37:59;7.70;;;6.03;;
4839;SDS011;2434;48.486;7.964;2023-04-10T03:40:27;9.47;;;7.13;;
4839;SDS011;2434;48.486;7.964;2023-04-10T03:42:56;10.43;;;6.50;;
4839;SDS011;2434;48.486;7.964;2023-04-10T03:45:27;7.37;;;5.70;;
4839;SDS011;2434;48.486;7.964;2023-04-10T03:47:55;9.10;;;5.73;;
4839;SDS011;2434;48.486;7.964;2023-04-10T03:50:25;9.50;;;6.03;;
4839;SDS011;2434;48.486;7.964;2023-04-10T03:52:57;5.73;;;4.63;;
4839;SDS011;2434;48.486;7.964;2023-04-10T03:55:25;8.20;;;5.70;;
4839;SDS011;2434;48.486;7.964;2023-04-10T03:57:54;7.60;;;5.20;;
4839;SDS011;2434;48.486;7.964;2023-04-10T04:00:23;7.10;;;5.00;;
4839;SDS011;2434;48.486;7.964;2023-04-10T04:03:05;7.30;;;6.10;;
4839;SDS011;2434;48.486;7.964;2023-04-10T04:06:01;7.67;;;5.60;;
4839;SDS011;2434;48.486;7.964;2023-04-10T04:08:40;6.63;;;4.83;;
4839;SDS011;2434;48.486;7.964;2023-04-10T04:11:17;7.07;;;5.10;;
4839;SDS011;2434;48.486;7.964;2023-04-10T04:13:56;6.17;;;5.40;;
4839;SDS011;2434;48.486;7.964;2023-04-10T04:16:51;5.77;;;4.60;;
4839;SDS011;2434;48.486;7.964;2023-04-10T04:19:22;7.63;;;5.63;;
4839;SDS011;2434;48.486;7.964;2023-04-10T04:22:10;7.70;;;5.60;;
4839;SDS011;2434;48.486;7.964;2023-04-10T04:25:00;8.63;;;5.73;;
4839;SDS011;2434;48.486;7.964;2023-04-10T04:27:51;9.13;;;5.93;;
4839;SDS011;2434;48.486;7.964;2023-04-10T04:30:40;7.47;;;6.63;;
4839;SDS011;2434;48.486;7.964;2023-04-10T04:33:11;9.57;;;6.37;;
4839;SDS011;2434;48.486;7.964;2023-04-10T04:35:57;7.20;;;5.43;;
4839;SDS011;2434;48.486;7.964;2023-04-10T04:38:53;7.00;;;5.50;;
4839;SDS011;2434;48.486;7.964;2023-04-10T04:41:31;8.77;;;5.80;;
4839;SDS011;2434;48.486;7.964;2023-04-10T04:44:05;8.43;;;6.27;;
4839;SDS011;2434;48.486;7.964;2023-04-10T04:46:58;8.00;;;6.07;;
4839;SDS011;2434;48.486;7.964;2023-04-10T04:49:49;5.60;;;4.67;;
4839;SDS011;2434;48.486;7.964;2023-04-10T04:52:25;8.03;;;5.83;;
4839;SDS011;2434;48.486;7.964;2023-04-10T04:55:05;7.57;;;5.80;;
4839;SDS011;2434;48.486;7.964;2023-04-10T04:57:59;7.57;;;5.10;;
4839;SDS011;2434;48.486;7.964;2023-04-10T05:00:51;5.37;;;4.37;;
4839;SDS011;2434;48.486;7.964;2023-04-10T05:03:27;7.13;;;5.30;;
4839;SDS011;2434;48.486;7.964;2023-04-10T05:06:11;7.90;;;5.60;;
4839;SDS011;2434;48.486;7.964;2023-04-10T05:08:47;6.13;;;5.07;;
4839;SDS011;2434;48.486;7.964;2023-04-10T05:11:27;5.73;;;4.40;;
4839;SDS011;2434;48.486;7.964;2023-04-10T05:14:27;5.90;;;4.90;;
4839;SDS011;2434;48.486;7.964;2023-04-10T05:17:19;6.60;;;4.87;;
4839;SDS011;2434;48.486;7.964;2023-04-10T05:20:16;6.67;;;4.70;;
4839;SDS011;2434;48.486;7.964;2023-04-10T05:23:14;6.50;;;4.70;;
4839;SDS011;2434;48.486;7.964;2023-04-10T05:26:12;5.90;;;4.80;;
4839;SDS011;2434;48.486;7.964;2023-04-10T05:28:52;5.50;;;4.40;;
4839;SDS011;2434;48.486;7.964;2023-04-10T05:31:21;5.63;;;4.47;;
4839;SDS011;2434;48.486;7.964;2023-04-10T05:34:08;4.93;;;4.43;;
4839;SDS011;2434;48.486;7.964;2023-04-10T05:36:51;7.30;;;5.23;;
4839;SDS011;2434;48.486;7.964;2023-04-10T05:39:43;11.57;;;5.87;;
4839;SDS011;2434;48.486;7.964;2023-04-10T05:42:34;9.57;;;5.20;;
4839;SDS011;2434;48.486;7.964;2023-04-10T05:45:20;6.53;;;5.03;;
4839;SDS011;2434;48.486;7.964;2023-04-10T05:48:01;4.77;;;4.07;;
4839;SDS011;2434;48.486;7.964;2023-04-10T05:50:55;5.67;;;4.87;;
4839;SDS011;2434;48.486;7.964;2023-04-10T05:53:39;6.83;;;5.10;;
4839;SDS011;2434;48.486;7.964;2023-04-10T05:56:39;7.37;;;5.43;;
4839;SDS011;2434;48.486;7.964;2023-04-10T05:59:40;6.83;;;5.10;;
4839;SDS011;2434;48.486;7.964;2023-04-10T06:02:47;6.10;;;4.40;;
4839;SDS011;2434;48.486;7.964;2023-04-10T06:05:22;6.90;;;5.00;;
4839;SDS011;2434;48.486;7.964;2023-04-10T06:07:57;5.43;;;4.70;;
4839;SDS011;2434;48.486;7.964;2023-04-10T06:10:27;7.70;;;5.20;;
4839;SDS011;2434;48.486;7.964;2023-04-10T06:12:56;8.23;;;5.20;;
4839;SDS011;2434;48.486;7.964;2023-04-10T06:15:24;9.30;;;6.43;;
4839;SDS011;2434;48.486;7.964;2023-04-10T06:17:54;7.67;;;5.63;;
4839;SDS011;2434;48.486;7.964;2023-04-10T06:20:22;8.67;;;6.73;;
4839;SDS011;2434;48.486;7.964;2023-04-10T06:22:51;8.80;;;6.20;;
4839;SDS011;2434;48.486;7.964;2023-04-10T06:25:19;7.40;;;6.07;;
4839;SDS011;2434;48.486;7.964;2023-04-10T06:27:47;7.47;;;5.77;;
4839;SDS011;2434;48.486;7.964;2023-04-10T06:30:16;5.53;;;4.93;;
4839;SDS011;2434;48.486;7.964;2023-04-10T06:32:44;6.67;;;5.13;;
4839;SDS011;2434;48.486;7.964;2023-04-10T06:35:13;7.27;;;5.90;;
4839;SDS011;2434;48.486;7.964;2023-04-10T06:37:42;7.00;;;5.70;;
4839;SDS011;2434;48.486;7.964;2023-04-10T06:40:11;9.47;;;6.63;;
4839;SDS011;2434;48.486;7.964;2023-04-10T06:42:40;9.50;;;7.20;;
4839;SDS011;2434;48.486;7.964;2023-04-10T06:45:17;9.20;;;6.80;;
4839;SDS011;2434;48.486;7.964;2023-04-10T06:47:45;8.10;;;6.00;;
4839;SDS011;2434;48.486;7.964;2023-04-10T06:50:14;9.00;;;6.70;;
4839;SDS011;2434;48.486;7.964;2023-04-10T06:52:42;11.83;;;8.30;;
4839;SDS011;2434;48.486;7.964;2023-04-10T06:55:11;10.23;;;7.23;;
4839;SDS011;2434;48.486;7.964;2023-04-10T06:57:39;9.23;;;6.83;;
4839;SDS011;2434;48.486;7.964;2023-04-10T07:00:07;8.10;;;6.40;;
4839;SDS011;2434;48.486;7.964;2023-04-10T07:02:36;8.63;;;6.30;;
4839;SDS011;2434;48.486;7.964;2023-04-10T07:05:05;9.40;;;6.80;;
4839;SDS011;2434;48.486;7.964;2023-04-10T07:07:35;8.60;;;5.67;;
4839;SDS011;2434;48.486;7.964;2023-04-10T07:10:03;10.47;;;7.00;;
4839;SDS011;2434;48.486;7.964;2023-04-10T07:12:32;10.17;;;6.30;;
4839;SDS011;2434;48.486;7.964;2023-04-10T07:15:00;9.80;;;6.87;;
4839;SDS011;2434;48.486;7.964;2023-04-10T07:17:28;7.80;;;6.10;;
4839;SDS011;2434;48.486;7.964;2023-04-10T07:19:57;8.23;;;6.40;;
4839;SDS011;2434;48.486;7.964;2023-04-10T07:22:25;8.10;;;5.93;;
4839;SDS011;2434;48.486;7.964;2023-04-10T07:24:54;9.70;;;6.47;;
4839;SDS011;2434;48.486;7.964;2023-04-10T07:27:23;11.40;;;6.90;;
4839;SDS011;2434;48.486;7.964;2023-04-10T07:29:52;8.27;;;6.27;;
4839;SDS011;2434;48.486;7.964;2023-04-10T07:32:21;9.60;;;5.80;;
4839;SDS011;2434;48.486;7.964;2023-04-10T07:34:50;6.37;;;5.20;;
4839;SDS011;2434;48.486;7.964;2023-04-10T07:37:18;9.00;;;5.93;;
4839;SDS011;2434;48.486;7.964;2023-04-10T07:39:47;7.77;;;5.73;;
4839;SDS011;2434;48.486;7.964;2023-04-10T07:42:17;7.73;;;5.80;;
4839;SDS011;2434;48.486;7.964;2023-04-10T07:44:45;8.83;;;5.97;;
4839;SDS011;2434;48.486;7.964;2023-04-10T07:47:14;10.10;;;5.80;;
4839;SDS011;2434;48.486;7.964;2023-04-10T07:49:42;9.97;;;6.23;;
4839;SDS011;2434;48.486;7.964;2023-04-10T07:52:10;6.97;;;5.30;;
4839;SDS011;2434;48.486;7.964;2023-04-10T07:54:38;8.53;;;6.43;;
4839;SDS011;2434;48.486;7.964;2023-04-10T07:57:06;7.93;;;5.80;;
4839;SDS011;2434;48.486;7.964;2023-04-10T07:59:36;7.07;;;5.80;;
4839;SDS011;2434;48.486;7.964;2023-04-10T08:02:04;7.30;;;6.10;;
4839;SDS011;2434;48.486;7.964;2023-04-10T08:04:33;7.50;;;6.00;;
4839;SDS011;2434;48.486;7.964;2023-04-10T08:07:01;8.47;;;6.47;;
4839;SDS011;2434;48.486;7.964;2023-04-10T08:09:29;7.13;;;6.07;;
4839;SDS011;2434;48.486;7.964;2023-04-10T08:11:58;8.70;;;6.67;;
4839;SDS011;2434;48.486;7.964;2023-04-10T08:14:26;8.47;;;6.53;;
4839;SDS011;2434;48.486;7.964;2023-04-10T08:16:55;9.47;;;6.53;;
4839;SDS011;2434;48.486;7.964;2023-04-10T08:19:24;8.40;;;5.77;;
4839;SDS011;2434;48.486;7.964;2023-04-10T08:21:52;7.70;;;5.90;;
4839;SDS011;2434;48.486;7.964;2023-04-10T08:24:20;6.23;;;5.43;;
4839;SDS011;2434;48.486;7.964;2023-04-10T08:26:48;7.70;;;6.43;;
4839;SDS011;2434;48.486;7.964;2023-04-10T08:29:16;8.20;;;6.27;;
4839;SDS011;2434;48.486;7.964;2023-04-10T08:31:44;7.83;;;6.10;;
4839;SDS011;2434;48.486;7.964;2023-04-10T08:34:14;10.83;;;6.17;;
4839;SDS011;2434;48.486;7.964;2023-04-10T08:36:42;7.00;;;5.33;;
4839;SDS011;2434;48.486;7.964;2023-04-10T08:39:10;8.53;;;6.40;;
4839;SDS011;2434;48.486;7.964;2023-04-10T08:41:39;8.40;;;6.40;;
4839;SDS011;2434;48.486;7.964;2023-04-10T08:44:07;9.37;;;6.13;;
4839;SDS011;2434;48.486;7.964;2023-04-10T08:46:35;8.40;;;5.87;;
4839;SDS011;2434;48.486;7.964;2023-04-10T08:49:10;6.03;;;4.83;;
4839;SDS011;2434;48.486;7.964;2023-04-10T08:51:45;7.10;;;5.47;;
4839;SDS011;2434;48.486;7.964;2023-04-10T08:54:18;7.37;;;5.40;;
4839;SDS011;2434;48.486;7.964;2023-04-10T08:56:52;5.17;;;4.33;;
4839;SDS011;2434;48.486;7.964;2023-04-10T08:59:22;7.50;;;5.50;;
4839;SDS011;2434;48.486;7.964;2023-04-10T09:01:50;6.10;;;4.60;;
4839;SDS011;2434;48.486;7.964;2023-04-10T09:04:20;6.77;;;5.20;;
4839;SDS011;2434;48.486;7.964;2023-04-10T09:06:49;6.53;;;5.23;;
4839;SDS011;2434;48.486;7.964;2023-04-10T09:09:18;4.87;;;4.37;;
4839;SDS011;2434;48.486;7.964;2023-04-10T09:11:56;5.40;;;4.73;;
4839;SDS011;2434;48.486;7.964;2023-04-10T09:14:28;6.40;;;4.30;;
4839;SDS011;2434;48.486;7.964;2023-04-10T09:17:10;5.30;;;4.40;;
4839;SDS011;2434;48.486;7.964;2023-04-10T09:19:45;7.50;;;5.10;;
4839;SDS011;2434;48.486;7.964;2023-04-10T09:22:14;4.57;;;3.87;;
4839;SDS011;2434;48.486;7.964;2023-04-10T09:24:44;5.53;;;4.27;;
4839;SDS011;2434;48.486;7.964;2023-04-10T09:27:26;4.77;;;4.17;;
4839;SDS011;2434;48.486;7.964;2023-04-10T09:29:57;4.87;;;3.90;;
4839;SDS011;2434;48.486;7.964;2023-04-10T09:32:36;4.37;;;3.83;;
4839;SDS011;2434;48.486;7.964;2023-04-10T09:35:08;7.60;;;3.93;;
4839;SDS011;2434;48.486;7.964;2023-04-10T09:37:37;3.97;;;3.27;;
4839;SDS011;2434;48.486;7.964;2023-04-10T09:40:18;4.60;;;3.67;;
4839;SDS011;2434;48.486;7.964;2023-04-10T09:42:47;4.40;;;3.00;;
4839;SDS011;2434;48.486;7.964;2023-04-10T09:45:15;3.93;;;3.50;;
4839;SDS011;2434;48.486;7.964;2023-04-10T09:47:58;4.23;;;3.37;;
4839;SDS011;2434;48.486;7.964;2023-04-10T09:50:34;4.47;;;3.80;;
4839;SDS011;2434;48.486;7.964;2023-04-10T09:53:05;3.70;;;3.00;;
4839;SDS011;2434;48.486;7.964;2023-04-10T09:55:34;4.77;;;3.53;;
4839;SDS011;2434;48.486;7.964;2023-04-10T09:58:03;5.40;;;3.47;;
4839;SDS011;2434;48.486;7.964;2023-04-10T10:00:32;6.20;;;3.53;;
4839;SDS011;2434;48.486;7.964;2023-04-10T10:03:06;5.77;;;3.60;;
4839;SDS011;2434;48.486;7.964;2023-04-10T10:05:37;3.87;;;3.37;;
4839;SDS011;2434;48.486;7.964;2023-04-10T10:08:07;8.03;;;2.93;;
4839;SDS011;2434;48.486;7.964;2023-04-10T10:10:38;4.83;;;3.00;;
4839;SDS011;2434;48.486;7.964;2023-04-10T10:13:10;3.10;;;2.80;;
4839;SDS011;2434;48.486;7.964;2023-04-10T10:15:45;3.13;;;2.70;;
4839;SDS011;2434;48.486;7.964;2023-04-10T10:18:19;3.73;;;3.07;;
4839;SDS011;2434;48.486;7.964;2023-04-10T10:21:00;5.40;;;3.40;;
4839;SDS011;2434;48.486;7.964;2023-04-10T10:23:30;5.47;;;3.70;;
4839;SDS011;2434;48.486;7.964;2023-04-10T10:25:59;4.30;;;3.00;;
4839;SDS011;2434;48.486;7.964;2023-04-10T10:28:31;4.07;;;3.10;;
4839;SDS011;2434;48.486;7.964;2023-04-10T10:31:01;4.50;;;2.60;;
4839;SDS011;2434;48.486;7.964;2023-04-10T10:33:30;3.90;;;3.07;;
4839;SDS011;2434;48.486;7.964;2023-04-10T10:36:03;3.77;;;3.03;;
4839;SDS011;2434;48.486;7.964;2023-04-10T10:38:33;3.50;;;3.07;;
4839;SDS011;2434;48.486;7.964;2023-04-10T10:41:08;3.83;;;2.90;;
4839;SDS011;2434;48.486;7.964;2023-04-10T10:43:43;3.60;;;2.63;;
4839;SDS011;2434;48.486;7.964;2023-04-10T10:46:20;5.00;;;3.40;;
4839;SDS011;2434;48.486;7.964;2023-04-10T10:48:59;4.30;;;3.37;;
4839;SDS011;2434;48.486;7.964;2023-04-10T10:54:32;4.00;;;2.93;;
4839;SDS011;2434;48.486;7.964;2023-04-10T10:57:05;3.47;;;3.07;;
4839;SDS011;2434;48.486;7.964;2023-04-10T11:00:10;4.10;;;3.00;;
4839;SDS011;2434;48.486;7.964;2023-04-10T11:02:39;5.40;;;2.67;;
4839;SDS011;2434;48.486;7.964;2023-04-10T11:05:07;3.83;;;2.70;;
4839;SDS011;2434;48.486;7.964;2023-04-10T11:11:02;3.63;;;2.83;;
4839;SDS011;2434;48.486;7.964;2023-04-10T11:13:31;2.77;;;2.47;;
4839;SDS011;2434;48.486;7.964;2023-04-10T11:16:01;3.50;;;2.87;;
4839;SDS011;2434;48.486;7.964;2023-04-10T11:24:56;3.40;;;3.10;;
4839;SDS011;2434;48.486;7.964;2023-04-10T11:30:29;3.27;;;2.50;;
4839;SDS011;2434;48.486;7.964;2023-04-10T11:32:59;3.03;;;2.53;;
4839;SDS011;2434;48.486;7.964;2023-04-10T11:35:29;3.00;;;2.70;;
4839;SDS011;2434;48.486;7.964;2023-04-10T11:38:07;3.30;;;2.73;;
4839;SDS011;2434;48.486;7.964;2023-04-10T11:43:21;4.83;;;2.53;;
4839;SDS011;2434;48.486;7.964;2023-04-10T11:45:49;3.00;;;2.70;;
4839;SDS011;2434;48.486;7.964;2023-04-10T11:48:25;3.37;;;2.73;;
4839;SDS011;2434;48.486;7.964;2023-04-10T11:50:54;2.63;;;2.20;;
4839;SDS011;2434;48.486;7.964;2023-04-10T11:53:22;4.20;;;2.80;;
4839;SDS011;2434;48.486;7.964;2023-04-10T11:55:52;3.40;;;2.70;;
4839;SDS011;2434;48.486;7.964;2023-04-10T11:58:22;3.40;;;2.73;;
4839;SDS011;2434;48.486;7.964;2023-04-10T12:00:57;3.77;;;2.80;;
4839;SDS011;2434;48.486;7.964;2023-04-10T12:03:32;2.90;;;2.40;;
4839;SDS011;2434;48.486;7.964;2023-04-10T12:06:03;3.60;;;2.87;;
4839;SDS011;2434;48.486;7.964;2023-04-10T12:08:33;3.37;;;2.87;;
4839;SDS011;2434;48.486;7.964;2023-04-10T12:11:01;3.50;;;3.17;;
4839;SDS011;2434;48.486;7.964;2023-04-10T12:13:31;3.27;;;2.53;;
4839;SDS011;2434;48.486;7.964;2023-04-10T12:16:00;3.50;;;2.77;;
4839;SDS011;2434;48.486;7.964;2023-04-10T12:18:31;2.90;;;2.10;;
4839;SDS011;2434;48.486;7.964;2023-04-10T12:20:59;4.00;;;2.90;;
4839;SDS011;2434;48.486;7.964;2023-04-10T12:23:28;3.17;;;2.70;;
4839;SDS011;2434;48.486;7.964;2023-04-10T12:26:10;4.13;;;2.97;;
4839;SDS011;2434;48.486;7.964;2023-04-10T12:28:42;2.90;;;2.50;;
4839;SDS011;2434;48.486;7.964;2023-04-10T12:31:18;2.80;;;2.17;;
4839;SDS011;2434;48.486;7.964;2023-04-10T12:33:53;3.20;;;2.80;;
4839;SDS011;2434;48.486;7.964;2023-04-10T12:36:23;4.27;;;2.27;;
4839;SDS011;2434;48.486;7.964;2023-04-10T12:38:54;2.70;;;1.73;;
4839;SDS011;2434;48.486;7.964;2023-04-10T12:41:24;3.90;;;2.30;;
4839;SDS011;2434;48.486;7.964;2023-04-10T12:44:05;2.90;;;2.50;;
4839;SDS011;2434;48.486;7.964;2023-04-10T12:46:34;2.50;;;2.10;;
4839;SDS011;2434;48.486;7.964;2023-04-10T12:49:09;2.00;;;1.80;;
4839;SDS011;2434;48.486;7.964;2023-04-10T12:51:45;2.10;;;1.83;;
4839;SDS011;2434;48.486;7.964;2023-04-10T12:54:27;2.50;;;1.93;;
4839;SDS011;2434;48.486;7.964;2023-04-10T12:56:57;4.90;;;2.00;;
4839;SDS011;2434;48.486;7.964;2023-04-10T12:59:27;5.23;;;2.43;;
4839;SDS011;2434;48.486;7.964;2023-04-10T13:01:56;3.77;;;2.33;;
4839;SDS011;2434;48.486;7.964;2023-04-10T13:04:24;2.03;;;1.67;;
4839;SDS011;2434;48.486;7.964;2023-04-10T13:06:53;1.97;;;1.57;;
4839;SDS011;2434;48.486;7.964;2023-04-10T13:09:21;2.37;;;2.10;;
4839;SDS011;2434;48.486;7.964;2023-04-10T13:11:50;2.47;;;2.00;;
4839;SDS011;2434;48.486;7.964;2023-04-10T13:14:18;2.60;;;2.23;;
4839;SDS011;2434;48.486;7.964;2023-04-10T13:16:48;2.93;;;2.40;;
4839;SDS011;2434;48.486;7.964;2023-04-10T13:19:16;3.10;;;2.23;;
4839;SDS011;2434;48.486;7.964;2023-04-10T13:21:44;3.00;;;2.33;;
4839;SDS011;2434;48.486;7.964;2023-04-10T13:24:12;3.57;;;2.70;;
4839;SDS011;2434;48.486;7.964;2023-04-10T13:26:42;3.37;;;2.57;;
4839;SDS011;2434;48.486;7.964;2023-04-10T13:29:10;3.63;;;2.70;;
4839;SDS011;2434;48.486;7.964;2023-04-10T13:31:38;3.23;;;2.60;;
4839;SDS011;2434;48.486;7.964;2023-04-10T13:34:08;7.10;;;2.20;;
4839;SDS011;2434;48.486;7.964;2023-04-10T13:36:36;3.03;;;2.10;;
4839;SDS011;2434;48.486;7.964;2023-04-10T13:39:05;3.20;;;2.40;;
4839;SDS011;2434;48.486;7.964;2023-04-10T13:41:33;4.60;;;2.73;;
4839;SDS011;2434;48.486;7.964;2023-04-10T13:44:01;2.80;;;2.23;;
4839;SDS011;2434;48.486;7.964;2023-04-10T13:46:30;2.60;;;2.30;;
4839;SDS011;2434;48.486;7.964;2023-04-10T13:48:58;2.93;;;2.40;;
4839;SDS011;2434;48.486;7.964;2023-04-10T13:51:27;4.50;;;2.10;;
4839;SDS011;2434;48.486;7.964;2023-04-10T13:53:56;2.40;;;2.20;;
4839;SDS011;2434;48.486;7.964;2023-04-10T13:56:24;2.57;;;1.93;;
4839;SDS011;2434;48.486;7.964;2023-04-10T13:58:52;2.90;;;2.03;;
4839;SDS011;2434;48.486;7.964;2023-04-10T14:01:21;2.53;;;2.10;;
4839;SDS011;2434;48.486;7.964;2023-04-10T14:03:49;3.10;;;1.90;;
4839;SDS011;2434;48.486;7.964;2023-04-10T14:06:18;3.40;;;2.30;;
4839;SDS011;2434;48.486;7.964;2023-04-10T14:08:47;3.20;;;2.33;;
4839;SDS011;2434;48.486;7.964;2023-04-10T14:11:15;3.00;;;2.23;;
4839;SDS011;2434;48.486;7.964;2023-04-10T14:13:44;4.90;;;2.40;;
4839;SDS011;2434;48.486;7.964;2023-04-10T14:16:12;2.60;;;1.80;;
4839;SDS011;2434;48.486;7.964;2023-04-10T14:18:40;3.30;;;2.37;;
4839;SDS011;2434;48.486;7.964;2023-04-10T14:21:08;2.13;;;1.90;;
4839;SDS011;2434;48.486;7.964;2023-04-10T14:23:37;2.50;;;2.20;;
4839;SDS011;2434;48.486;7.964;2023-04-10T14:26:06;3.30;;;2.60;;
4839;SDS011;2434;48.486;7.964;2023-04-10T14:28:35;2.20;;;1.87;;
4839;SDS011;2434;48.486;7.964;2023-04-10T14:31:03;3.03;;;2.43;;
4839;SDS011;2434;48.486;7.964;2023-04-10T14:33:33;2.23;;;2.03;;
4839;SDS011;2434;48.486;7.964;2023-04-10T14:36:01;2.20;;;1.97;;
4839;SDS011;2434;48.486;7.964;2023-04-10T14:38:29;4.10;;;2.60;;
4839;SDS011;2434;48.486;7.964;2023-04-10T14:40:57;2.87;;;2.23;;
4839;SDS011;2434;48.486;7.964;2023-04-10T14:43:27;2.80;;;1.90;;
4839;SDS011;2434;48.486;7.964;2023-04-10T14:45:55;3.00;;;2.40;;
4839;SDS011;2434;48.486;7.964;2023-04-10T14:48:23;2.63;;;2.40;;
4839;SDS011;2434;48.486;7.964;2023-04-10T14:50:51;2.17;;;1.90;;
4839;SDS011;2434;48.486;7.964;2023-04-10T14:53:20;7.43;;;1.90;;
4839;SDS011;2434;48.486;7.964;2023-04-10T14:55:49;3.50;;;1.70;;
4839;SDS011;2434;48.486;7.964;2023-04-10T14:58:17;2.20;;;1.87;;
4839;SDS011;2434;48.486;7.964;2023-04-10T15:00:47;2.60;;;2.10;;
4839;SDS011;2434;48.486;7.964;2023-04-10T15:03:16;2.13;;;1.90;;
4839;SDS011;2434;48.486;7.964;2023-04-10T15:05:44;3.20;;;2.17;;
4839;SDS011;2434;48.486;7.964;2023-04-10T15:08:12;4.33;;;3.10;;
4839;SDS011;2434;48.486;7.964;2023-04-10T15:10:40;4.50;;;2.60;;
4839;SDS011;2434;48.486;7.964;2023-04-10T15:13:08;2.47;;;2.27;;
4839;SDS011;2434;48.486;7.964;2023-04-10T15:15:36;4.10;;;2.90;;
4839;SDS011;2434;48.486;7.964;2023-04-10T15:18:06;3.20;;;2.20;;
4839;SDS011;2434;48.486;7.964;2023-04-10T15:20:34;2.97;;;2.30;;
4839;SDS011;2434;48.486;7.964;2023-04-10T15:23:02;3.30;;;2.30;;
4839;SDS011;2434;48.486;7.964;2023-04-10T15:25:31;4.07;;;2.63;;
4839;SDS011;2434;48.486;7.964;2023-04-10T15:27:59;3.70;;;1.80;;
4839;SDS011;2434;48.486;7.964;2023-04-10T15:30:28;4.37;;;2.20;;
4839;SDS011;2434;48.486;7.964;2023-04-10T15:32:57;2.30;;;1.87;;
4839;SDS011;2434;48.486;7.964;2023-04-10T15:35:26;2.77;;;2.17;;
4839;SDS011;2434;48.486;7.964;2023-04-10T15:37:56;2.93;;;1.80;;
4839;SDS011;2434;48.486;7.964;2023-04-10T15:40:24;2.10;;;1.70;;
4839;SDS011;2434;48.486;7.964;2023-04-10T15:42:52;2.53;;;2.20;;
4839;SDS011;2434;48.486;7.964;2023-04-10T15:45:20;2.83;;;2.00;;
4839;SDS011;2434;48.486;7.964;2023-04-10T15:47:48;2.07;;;1.83;;
4839;SDS011;2434;48.486;7.964;2023-04-10T15:50:17;2.33;;;1.80;;
4839;SDS011;2434;48.486;7.964;2023-04-10T15:52:46;1.70;;;1.47;;
4839;SDS011;2434;48.486;7.964;2023-04-10T15:55:14;1.97;;;1.63;;
4839;SDS011;2434;48.486;7.964;2023-04-10T15:57:43;3.13;;;1.40;;
4839;SDS011;2434;48.486;7.964;2023-04-10T16:00:11;2.80;;;2.30;;
4839;SDS011;2434;48.486;7.964;2023-04-10T16:02:41;1.57;;;1.43;;
4839;SDS011;2434;48.486;7.964;2023-04-10T16:05:09;1.97;;;1.70;;
4839;SDS011;2434;48.486;7.964;2023-04-10T16:07:38;2.40;;;1.80;;